Time;durP1;ratioP1;P1;durP2;ratioP2;P2;SDS_P1;SDS_P2;PMS_P1;PMS_P2;Temp;Humidity;BMP_temperature;BMP_pressure;BME280_temperature;BME280_humidity;BME280_pressure;Samples;Min_cycle;Max_cycle;Signal;HPM_P1;HPM_P2
2021/11/11 02:56:06;;;;;;;11.05;5.40;;;11.90;99.90;;;;;;6011368;22;20023;-87
2021/11/11 02:58:39;;;;;;;8.02;4.85;;;11.90;99.90;;;;;;5027277;28;20044;-86
2021/11/11 03:01:08;;;;;;;13.73;6.00;;;11.90;99.90;;;;;;5040862;28;20490;-87
2021/11/11 03:03:36;;;;;;;12.75;5.82;;;11.80;99.90;;;;;;5039156;28;20057;-86
2021/11/11 03:06:08;;;;;;;9.40;5.28;;;11.80;99.90;;;;;;5033278;28;20499;-87
2021/11/11 03:08:39;;;;;;;14.53;7.50;;;11.80;99.90;;;;;;5050996;28;20055;-85
2021/11/11 03:11:08;;;;;;;12.77;6.32;;;11.80;99.90;;;;;;5054357;28;20047;-87
2021/11/11 03:13:46;;;;;;;14.02;6.35;;;11.90;99.90;;;;;;5054814;28;20044;-87
2021/11/11 03:16:14;;;;;;;12.45;6.25;;;11.90;99.90;;;;;;5037340;28;20044;-86
2021/11/11 03:18:42;;;;;;;16.30;8.63;;;12.00;99.90;;;;;;5023073;28;20066;-87
2021/11/11 03:21:10;;;;;;;12.98;6.90;;;12.00;99.90;;;;;;5011491;28;20041;-88
2021/11/11 03:23:38;;;;;;;13.02;7.78;;;12.00;99.90;;;;;;5017243;28;20053;-87
2021/11/11 03:26:08;;;;;;;14.50;7.78;;;12.00;99.90;;;;;;5023347;28;20051;-87
2021/11/11 03:28:40;;;;;;;13.63;7.45;;;12.00;99.90;;;;;;5053030;28;20040;-86
2021/11/11 03:31:10;;;;;;;14.30;7.57;;;12.10;99.90;;;;;;5033736;28;20056;-88
2021/11/11 03:33:38;;;;;;;16.77;8.18;;;12.10;99.90;;;;;;5033291;28;20044;-87
2021/11/11 03:36:06;;;;;;;17.60;7.30;;;12.10;99.90;;;;;;5011299;28;20049;-87
2021/11/11 03:38:36;;;;;;;16.88;8.98;;;12.10;99.90;;;;;;5025654;28;20043;-87
2021/11/11 03:41:03;;;;;;;14.77;7.20;;;12.10;99.90;;;;;;5020440;28;20048;-86
2021/11/11 03:43:34;;;;;;;17.50;8.13;;;12.10;99.90;;;;;;5024480;28;20048;-87
2021/11/11 03:46:11;;;;;;;14.68;8.02;;;12.10;99.90;;;;;;5011505;28;20049;-88
2021/11/11 03:48:41;;;;;;;16.75;8.90;;;12.10;99.90;;;;;;5021225;28;20529;-87
2021/11/11 03:51:12;;;;;;;19.13;9.68;;;12.10;99.90;;;;;;5037761;28;20509;-87
2021/11/11 03:53:41;;;;;;;20.35;9.88;;;12.10;99.90;;;;;;5022301;28;20049;-86
2021/11/11 03:56:09;;;;;;;21.55;9.68;;;12.10;99.90;;;;;;5035240;28;20046;-87
2021/11/11 03:58:37;;;;;;;20.25;10.27;;;12.10;99.90;;;;;;5035585;28;20045;-87
2021/11/11 04:01:05;;;;;;;18.83;9.55;;;12.10;99.90;;;;;;5021183;28;20060;-87
2021/11/11 04:03:36;;;;;;;20.38;10.75;;;12.10;99.90;;;;;;5027652;28;20045;-87
2021/11/11 04:06:10;;;;;;;21.80;12.00;;;12.10;99.90;;;;;;4177081;28;10001123;-87
2021/11/11 04:08:40;;;;;;;38.60;11.48;;;12.50;99.90;;;;;;5036293;28;20248;-86
2021/11/11 04:11:08;;;;;;;21.52;10.57;;;12.00;99.90;;;;;;5027855;28;20059;-86
2021/11/11 04:13:39;;;;;;;21.10;11.10;;;12.00;99.90;;;;;;5055586;28;20056;-87
2021/11/11 04:16:06;;;;;;;24.77;12.48;;;12.00;99.90;;;;;;5019589;28;20063;-88
2021/11/11 04:18:38;;;;;;;22.73;12.32;;;12.00;99.90;;;;;;5018578;28;20041;-86
2021/11/11 04:21:06;;;;;;;26.27;13.23;;;12.00;99.90;;;;;;5002327;28;20056;-88
2021/11/11 04:23:34;;;;;;;25.63;13.60;;;12.00;99.90;;;;;;5019309;28;20056;-87
2021/11/11 04:26:10;;;;;;;25.70;12.82;;;12.00;99.90;;;;;;5016610;28;20056;-86
2021/11/11 04:28:49;;;;;;;23.45;12.63;;;12.00;99.90;;;;;;5032517;28;20535;-87
2021/11/11 04:34:03;;;;;;;29.80;14.63;;;11.80;99.90;;;;;;5031558;28;20055;-87
2021/11/11 04:44:30;;;;;;;23.45;14.45;;;12.00;99.90;;;;;;4998772;28;20049;-87
2021/11/11 04:52:29;;;;;;;22.27;13.07;;;12.00;99.90;;;;;;5031755;28;20049;-86
2021/11/11 05:05:47;;;;;;;30.90;13.98;;;11.70;99.90;;;;;;5012404;28;20045;-86
2021/11/11 05:08:15;;;;;;;26.38;14.18;;;11.60;99.90;;;;;;5014898;28;20054;-87
2021/11/11 05:10:51;;;;;;;25.00;13.95;;;11.60;99.90;;;;;;5015463;28;20045;-87
2021/11/11 05:13:19;;;;;;;25.70;15.50;;;11.60;99.90;;;;;;5013110;28;20045;-87
2021/11/11 05:15:52;;;;;;;29.02;15.40;;;11.50;99.90;;;;;;5010961;28;20050;-87
2021/11/11 05:18:20;;;;;;;26.25;14.25;;;11.40;99.90;;;;;;4994356;28;20046;-86
2021/11/11 05:20:49;;;;;;;27.05;13.35;;;11.40;99.90;;;;;;4978249;28;20360;-87
2021/11/11 05:23:18;;;;;;;29.25;14.55;;;11.30;99.90;;;;;;4994401;28;20500;-88
2021/11/11 05:25:46;;;;;;;24.60;13.60;;;11.30;99.90;;;;;;5019844;28;20052;-87
2021/11/11 05:28:19;;;;;;;25.90;14.95;;;11.20;99.90;;;;;;5013430;28;20044;-87
2021/11/11 05:30:48;;;;;;;27.92;16.08;;;11.20;99.90;;;;;;4997801;28;20056;-87
2021/11/11 05:33:16;;;;;;;27.35;14.00;;;11.10;99.90;;;;;;5011542;28;20053;-86
2021/11/11 05:35:45;;;;;;;24.25;12.82;;;11.10;99.90;;;;;;4998352;28;20056;-89
2021/11/11 05:38:17;;;;;;;27.35;13.25;;;11.00;99.90;;;;;;4996533;28;20045;-86
2021/11/11 05:40:44;;;;;;;30.13;13.60;;;11.00;99.90;;;;;;5013698;28;20049;-87
2021/11/11 05:43:12;;;;;;;25.42;14.20;;;10.90;99.90;;;;;;5015317;28;20475;-85
2021/11/11 05:45:41;;;;;;;29.80;15.75;;;10.80;99.90;;;;;;5031128;28;20053;-86
2021/11/11 05:48:09;;;;;;;23.70;13.75;;;10.80;99.90;;;;;;5014980;28;20048;-86
2021/11/11 05:50:40;;;;;;;25.45;14.38;;;10.70;99.90;;;;;;5012233;28;20049;-87
2021/11/11 05:53:08;;;;;;;27.13;14.77;;;10.70;99.90;;;;;;5014809;28;20052;-86
2021/11/11 05:55:38;;;;;;;29.27;14.88;;;10.70;99.90;;;;;;5027665;28;20045;-87
2021/11/11 05:58:11;;;;;;;24.40;13.10;;;10.60;99.90;;;;;;5025838;28;20060;-86
2021/11/11 06:00:39;;;;;;;24.63;13.57;;;10.60;99.90;;;;;;4987089;28;20049;-86
2021/11/11 06:03:16;;;;;;;26.42;14.52;;;10.60;99.90;;;;;;5012869;28;20045;-86
2021/11/11 06:05:48;;;;;;;27.23;14.48;;;10.60;99.90;;;;;;4991361;28;20452;-86
2021/11/11 06:08:19;;;;;;;22.80;12.45;;;10.70;99.90;;;;;;4675510;28;9999923;-86
2021/11/11 06:10:47;;;;;;;25.52;12.98;;;10.50;99.90;;;;;;5007839;28;20049;-86
2021/11/11 06:13:15;;;;;;;25.05;13.23;;;10.50;99.90;;;;;;5009568;28;20038;-85
2021/11/11 06:15:42;;;;;;;25.85;12.80;;;10.50;99.90;;;;;;4995574;28;20060;-86
2021/11/11 06:18:12;;;;;;;30.58;13.02;;;10.50;99.90;;;;;;4990563;28;20060;-86
2021/11/11 06:20:45;;;;;;;23.92;12.25;;;10.50;99.90;;;;;;4994162;28;20057;-87
2021/11/11 06:23:14;;;;;;;26.35;13.35;;;10.40;99.90;;;;;;5004064;28;20052;-87
2021/11/11 06:25:44;;;;;;;27.08;13.75;;;10.40;99.90;;;;;;5013172;28;20064;-87
2021/11/11 06:28:11;;;;;;;27.83;14.02;;;10.30;99.90;;;;;;5012983;28;20060;-86
2021/11/11 06:30:40;;;;;;;25.17;12.27;;;10.30;99.90;;;;;;5014567;28;20420;-87
2021/11/11 06:33:14;;;;;;;23.05;13.10;;;10.30;99.90;;;;;;5028736;28;20495;-85
2021/11/11 06:35:44;;;;;;;29.58;12.63;;;10.30;99.90;;;;;;5003687;28;20046;-88
2021/11/11 06:38:12;;;;;;;27.20;12.75;;;10.20;99.90;;;;;;4997295;28;20049;-86
2021/11/11 06:40:40;;;;;;;24.17;13.00;;;10.20;99.90;;;;;;5024972;28;20057;-87
2021/11/11 06:43:08;;;;;;;24.90;11.45;;;10.20;99.90;;;;;;4988922;28;20046;-87
2021/11/11 06:45:41;;;;;;;27.95;15.38;;;10.20;99.90;;;;;;5007966;28;20700;-88
2021/11/11 06:48:10;;;;;;;25.33;13.27;;;10.10;99.90;;;;;;4993198;28;20056;-86
2021/11/11 06:50:39;;;;;;;26.88;13.80;;;10.00;99.90;;;;;;5035974;28;20045;-88
2021/11/11 06:53:11;;;;;;;27.05;14.02;;;10.10;99.90;;;;;;5000580;28;20058;-87
2021/11/11 06:55:42;;;;;;;26.00;13.35;;;10.00;99.90;;;;;;5008037;28;20484;-86
2021/11/11 06:58:17;;;;;;;26.00;12.90;;;10.00;99.90;;;;;;5018389;28;20037;-87
2021/11/11 07:00:47;;;;;;;25.02;11.95;;;9.90;99.90;;;;;;5003325;28;20050;-88
2021/11/11 07:03:15;;;;;;;22.67;11.95;;;9.80;99.90;;;;;;5027675;28;20072;-85
2021/11/11 07:05:45;;;;;;;23.75;11.93;;;10.00;99.90;;;;;;4993481;28;20425;-87
2021/11/11 07:08:14;;;;;;;23.92;11.48;;;9.80;99.90;;;;;;4974030;28;20393;-87
2021/11/11 07:10:46;;;;;;;25.95;12.02;;;8.70;99.90;;;;;;4987855;28;20046;-87
2021/11/11 07:13:15;;;;;;;26.15;11.88;;;9.80;99.90;;;;;;5010686;28;20511;-88
2021/11/11 07:15:43;;;;;;;35.17;14.93;;;9.80;99.90;;;;;;4999596;28;20050;-89
2021/11/11 07:18:13;;;;;;;25.45;12.60;;;9.80;99.90;;;;;;4996073;28;20041;-87
2021/11/11 07:20:44;;;;;;;23.90;12.68;;;9.80;99.90;;;;;;5009311;28;20497;-88
2021/11/11 07:23:14;;;;;;;25.05;12.27;;;10.00;99.90;;;;;;5004724;28;20398;-90
2021/11/11 07:25:44;;;;;;;25.52;12.50;;;9.70;99.90;;;;;;4997177;28;20046;-88
2021/11/11 07:28:12;;;;;;;26.58;12.63;;;9.80;99.90;;;;;;4998424;28;20041;-88
2021/11/11 07:30:40;;;;;;;26.45;12.85;;;9.80;99.90;;;;;;5001503;28;20049;-88
2021/11/11 07:33:10;;;;;;;29.85;13.00;;;9.80;99.90;;;;;;5013526;28;20061;-88
2021/11/11 07:35:40;;;;;;;25.65;11.25;;;9.80;99.90;;;;;;5009867;28;20065;-88
2021/11/11 07:38:08;;;;;;;28.83;12.52;;;9.90;99.90;;;;;;5039346;28;20046;-87
2021/11/11 07:40:36;;;;;;;30.20;12.85;;;10.00;99.90;;;;;;5034104;28;20056;-89
2021/11/11 07:43:05;;;;;;;28.52;12.52;;;10.00;99.90;;;;;;5004063;28;20064;-88
2021/11/11 07:45:38;;;;;;;25.33;11.57;;;10.10;99.90;;;;;;5003561;28;20057;-85
2021/11/11 07:48:07;;;;;;;25.38;10.95;;;10.00;99.90;;;;;;5005603;28;20053;-90
2021/11/11 07:50:41;;;;;;;27.88;13.30;;;10.10;99.90;;;;;;5019353;28;20050;-90
2021/11/11 07:53:10;;;;;;;30.90;13.32;;;10.10;99.90;;;;;;5015585;28;20054;-87
2021/11/11 07:55:40;;;;;;;30.27;14.60;;;10.20;99.90;;;;;;5004788;28;20037;-89
2021/11/11 07:58:09;;;;;;;27.23;13.83;;;10.20;99.90;;;;;;5036131;28;20053;-88
2021/11/11 08:00:38;;;;;;;26.08;12.50;;;10.30;99.90;;;;;;5000902;28;20049;-89
2021/11/11 08:03:10;;;;;;;26.23;12.15;;;10.30;99.90;;;;;;5014733;28;20084;-88
2021/11/11 08:06:04;;;;;;;29.63;12.85;;;10.30;99.90;;;;;;5029401;28;20052;-88
2021/11/11 08:08:32;;;;;;;27.27;13.30;;;10.40;99.90;;;;;;4990231;28;20042;-88
2021/11/11 08:11:01;;;;;;;29.67;13.90;;;10.50;99.90;;;;;;5012637;28;20052;-88
2021/11/11 08:13:29;;;;;;;28.80;13.45;;;10.50;99.90;;;;;;5011530;28;20046;-88
2021/11/11 08:15:57;;;;;;;29.02;13.70;;;10.50;99.90;;;;;;5008004;28;20045;-86
2021/11/11 08:18:26;;;;;;;31.80;14.57;;;10.60;99.90;;;;;;5013295;28;20049;-88
2021/11/11 08:20:54;;;;;;;28.48;13.43;;;10.60;99.90;;;;;;5025933;28;20057;-86
2021/11/11 08:23:23;;;;;;;26.73;14.35;;;10.70;99.90;;;;;;5028364;28;20053;-88
2021/11/11 08:25:51;;;;;;;26.40;13.50;;;10.70;99.90;;;;;;5011471;28;20064;-87
2021/11/11 08:28:21;;;;;;;26.92;13.63;;;10.70;99.90;;;;;;4994252;28;20058;-87
2021/11/11 08:30:49;;;;;;;47.95;15.75;;;10.80;99.90;;;;;;5009462;28;20041;-87
2021/11/11 08:33:17;;;;;;;28.95;13.25;;;10.90;99.90;;;;;;5026372;28;20042;-88
2021/11/11 08:35:47;;;;;;;31.45;15.40;;;10.90;99.90;;;;;;5012538;28;20049;-85
2021/11/11 08:38:15;;;;;;;33.60;16.38;;;11.00;99.90;;;;;;4996045;28;20103;-89
2021/11/11 08:40:43;;;;;;;27.83;13.77;;;11.10;99.90;;;;;;4990811;28;20049;-90
2021/11/11 08:43:11;;;;;;;27.17;12.50;;;11.10;99.90;;;;;;4998835;28;20049;-91
2021/11/11 08:45:44;;;;;;;27.25;14.57;;;11.20;99.90;;;;;;4990524;28;20053;-88
2021/11/11 08:48:13;;;;;;;29.02;15.38;;;11.10;99.90;;;;;;4997643;28;20041;-88
2021/11/11 08:50:44;;;;;;;33.63;13.65;;;11.30;99.90;;;;;;5028837;28;20045;-90
2021/11/11 08:53:13;;;;;;;30.08;15.18;;;11.40;99.90;;;;;;4995912;28;20492;-88
2021/11/11 08:55:42;;;;;;;30.75;15.48;;;11.40;99.90;;;;;;5008992;28;20045;-89
2021/11/11 08:58:12;;;;;;;25.02;13.20;;;11.50;99.90;;;;;;5012291;28;20045;-89
2021/11/11 09:00:50;;;;;;;26.15;15.48;;;11.60;99.90;;;;;;5006539;28;20734;-88
2021/11/11 09:03:19;;;;;;;28.55;13.57;;;11.60;99.90;;;;;;4988864;28;20053;-88
2021/11/11 09:05:48;;;;;;;27.88;16.33;;;11.70;99.90;;;;;;5005721;28;20076;-88
2021/11/11 09:08:16;;;;;;;25.67;11.57;;;11.70;99.90;;;;;;5004104;28;20068;-88
2021/11/11 09:10:48;;;;;;;26.42;13.32;;;11.70;99.90;;;;;;5032984;28;20037;-88
2021/11/11 09:13:32;;;;;;;25.70;12.73;;;11.70;99.90;;;;;;5042673;28;20041;-88
2021/11/11 09:16:01;;;;;;;27.63;12.93;;;11.90;99.90;;;;;;5029171;28;20056;-87
2021/11/11 09:18:30;;;;;;;24.05;11.52;;;12.00;99.90;;;;;;5040635;28;20490;-88
2021/11/11 09:21:07;;;;;;;20.70;10.75;;;12.00;99.90;;;;;;5027056;28;20042;-87
2021/11/11 09:23:36;;;;;;;15.63;8.52;;;12.20;99.90;;;;;;5009876;28;20061;-87
2021/11/11 09:26:05;;;;;;;28.10;9.00;;;12.20;99.90;;;;;;4669023;28;9999984;-88
2021/11/11 09:28:48;;;;;;;19.30;9.77;;;12.20;99.90;;;;;;4994016;28;20495;-88
2021/11/11 09:31:26;;;;;;;15.77;8.27;;;12.30;99.90;;;;;;5014038;28;20053;-87
2021/11/11 09:33:54;;;;;;;14.80;8.05;;;12.40;99.90;;;;;;5040497;28;20058;-88
2021/11/11 09:36:23;;;;;;;21.90;10.27;;;12.50;99.90;;;;;;5037635;28;20048;-87
2021/11/11 09:38:51;;;;;;;21.48;9.73;;;12.60;99.90;;;;;;5030435;28;20064;-86
2021/11/11 09:41:32;;;;;;;19.63;8.70;;;12.50;99.90;;;;;;5029369;28;20064;-88
2021/11/11 09:44:00;;;;;;;18.05;7.82;;;13.10;99.90;;;;;;5011169;28;20596;-88
2021/11/11 09:46:28;;;;;;;16.90;7.35;;;12.60;99.90;;;;;;5007087;28;20053;-88
2021/11/11 09:48:57;;;;;;;15.02;8.50;;;12.60;99.90;;;;;;5035267;28;20046;-88
2021/11/11 09:51:25;;;;;;;18.85;9.18;;;12.70;99.90;;;;;;5010914;28;20053;-88
2021/11/11 09:59:44;;;;;;;20.02;9.52;;;12.70;99.90;;;;;;5020027;28;20052;-86
2021/11/11 10:02:12;;;;;;;19.63;9.30;;;12.70;99.90;;;;;;5030253;28;20045;-85
2021/11/11 10:04:40;;;;;;;18.50;9.68;;;12.80;99.90;;;;;;5023940;28;20539;-88
2021/11/11 10:07:10;;;;;;;25.20;11.65;;;12.80;99.90;;;;;;5005411;28;20412;-88
2021/11/11 10:09:40;;;;;;;25.05;13.00;;;12.80;99.90;;;;;;5010969;28;20072;-87
2021/11/11 10:12:17;;;;;;;23.20;11.17;;;12.80;99.90;;;;;;4973382;28;20405;-87
2021/11/11 10:14:47;;;;;;;21.33;10.07;;;12.80;99.90;;;;;;4997887;28;20053;-89
2021/11/11 10:17:17;;;;;;;22.73;10.55;;;12.80;99.90;;;;;;5010224;28;20053;-89
2021/11/11 10:19:54;;;;;;;22.23;10.57;;;12.90;99.90;;;;;;5007186;28;20400;-89
2021/11/11 10:22:27;;;;;;;20.50;9.93;;;12.90;99.90;;;;;;5025922;28;20053;-90
2021/11/11 10:25:02;;;;;;;24.65;12.13;;;12.90;99.90;;;;;;5002928;28;20045;-90
2021/11/11 10:27:48;;;;;;;18.77;9.40;;;13.00;99.90;;;;;;4996066;28;20508;-89
2021/11/11 10:30:21;;;;;;;18.65;9.00;;;13.10;99.90;;;;;;5014914;28;20057;-88
2021/11/11 10:32:53;;;;;;;16.38;7.10;;;13.10;99.90;;;;;;5001543;28;20054;-87
2021/11/11 10:35:30;;;;;;;18.75;7.53;;;13.20;99.90;;;;;;5043188;28;21225;-88
2021/11/11 10:38:09;;;;;;;13.73;6.50;;;13.40;99.90;;;;;;5022498;28;20048;-86
2021/11/11 10:40:41;;;;;;;14.63;5.50;;;13.20;99.90;;;;;;5041537;28;20064;-89
2021/11/11 10:43:15;;;;;;;15.73;6.55;;;13.20;99.90;;;;;;5038797;28;21227;-89
2021/11/11 10:45:52;;;;;;;14.57;6.40;;;13.30;99.90;;;;;;5018128;28;20038;-89
2021/11/11 10:48:31;;;;;;;17.08;7.53;;;13.10;99.90;;;;;;5010251;28;20044;-89
2021/11/11 10:51:00;;;;;;;13.43;6.72;;;13.30;99.90;;;;;;5026769;28;20052;-91
2021/11/11 10:53:34;;;;;;;13.63;6.25;;;13.30;99.90;;;;;;5022500;28;20048;-88
2021/11/11 10:56:06;;;;;;;11.80;6.07;;;13.30;99.90;;;;;;5016253;28;20037;-89
2021/11/11 10:58:39;;;;;;;17.15;7.82;;;13.40;99.90;;;;;;5024878;28;20057;-90
2021/11/11 11:01:11;;;;;;;17.88;7.13;;;13.40;99.90;;;;;;5017525;28;20056;-89
2021/11/11 11:03:42;;;;;;;14.32;7.00;;;13.50;99.90;;;;;;5008890;28;20045;-91
2021/11/11 11:06:15;;;;;;;12.15;5.50;;;13.50;99.90;;;;;;5024047;28;20064;-89
2021/11/11 11:08:50;;;;;;;13.88;6.38;;;13.60;99.90;;;;;;5008715;28;20052;-88
2021/11/11 11:11:27;;;;;;;15.23;7.13;;;13.60;99.90;;;;;;5026657;28;20051;-87
2021/11/11 11:13:58;;;;;;;10.48;6.10;;;13.70;99.90;;;;;;5023258;28;20590;-88
2021/11/11 11:16:37;;;;;;;14.73;6.32;;;13.70;99.90;;;;;;5013599;28;20045;-89
2021/11/11 11:19:15;;;;;;;10.25;4.15;;;13.80;99.90;;;;;;5024735;28;20057;-88
2021/11/11 11:21:49;;;;;;;9.68;4.28;;;14.00;99.90;;;;;;5029278;28;20052;-88
2021/11/11 11:24:25;;;;;;;10.10;4.78;;;13.80;99.90;;;;;;5029990;28;20048;-87
2021/11/11 11:26:56;;;;;;;5.88;3.10;;;13.90;99.90;;;;;;5018552;28;20044;-87
2021/11/11 11:29:45;;;;;;;8.60;3.50;;;13.90;99.90;;;;;;5007372;28;20056;-89
2021/11/11 11:32:20;;;;;;;13.32;5.95;;;13.90;99.90;;;;;;5044233;28;20476;-87
2021/11/11 11:34:51;;;;;;;13.60;5.28;;;13.90;99.90;;;;;;5031749;28;20044;-88
2021/11/11 11:37:26;;;;;;;9.57;3.80;;;14.00;99.90;;;;;;5034995;28;20064;-91
2021/11/11 11:40:01;;;;;;;8.60;4.45;;;14.00;99.90;;;;;;5032732;28;20734;-90
2021/11/11 11:42:36;;;;;;;6.18;3.70;;;14.10;99.90;;;;;;5009382;28;20407;-89
2021/11/11 11:45:22;;;;;;;8.07;3.70;;;14.20;99.90;;;;;;5015966;28;20310;-89
2021/11/11 11:48:08;;;;;;;14.45;3.10;;;14.30;99.90;;;;;;4661171;28;10000366;-89
2021/11/11 11:50:47;;;;;;;14.55;2.80;;;14.50;99.90;;;;;;5024785;28;20052;-89
2021/11/11 11:53:24;;;;;;;3.85;2.35;;;14.50;99.90;;;;;;5034127;28;20052;-87
2021/11/11 11:56:04;;;;;;;2.28;1.60;;;14.60;99.90;;;;;;5016090;28;20053;-88
2021/11/11 11:58:42;;;;;;;5.35;2.25;;;14.80;99.90;;;;;;5011435;28;20499;-89
2021/11/11 12:09:35;;;;;;;1.50;1.40;;;15.00;99.90;;;;;;5021062;28;20080;-88
2021/11/11 12:15:16;;;;;;;3.20;1.83;;;15.10;99.90;;;;;;5027523;28;20333;-90
2021/11/11 12:29:52;;;;;;;1.98;1.35;;;15.60;99.90;;;;;;5018675;28;20407;-88
2021/11/11 12:38:35;;;;;;;2.50;1.17;;;15.70;99.90;;;;;;5047460;28;20044;-87
2021/11/11 12:41:13;;;;;;;2.15;1.35;;;15.70;99.90;;;;;;4999392;28;20064;-86
2021/11/11 12:43:42;;;;;;;4.63;1.33;;;15.70;99.90;;;;;;5023064;28;20048;-88
2021/11/11 12:46:37;;;;;;;5.72;1.38;;;15.70;99.90;;;;;;5037234;28;20052;-86
2021/11/11 12:49:29;;;;;;;5.47;1.50;;;15.70;99.90;;;;;;5010521;28;20052;-89
2021/11/11 12:52:12;;;;;;;5.75;1.58;;;15.70;99.90;;;;;;5025163;28;20055;-87
2021/11/11 12:54:44;;;;;;;5.53;1.85;;;15.70;99.90;;;;;;4997638;28;20048;-88
2021/11/11 12:57:14;;;;;;;2.95;1.50;;;15.60;99.90;;;;;;5002951;28;20051;-89
2021/11/11 12:59:42;;;;;;;3.38;2.38;;;15.50;99.90;;;;;;5035897;28;20063;-89
2021/11/11 13:02:12;;;;;;;3.45;1.63;;;15.30;99.90;;;;;;5020746;28;20220;-89
2021/11/11 13:04:59;;;;;;;4.53;1.92;;;15.30;99.90;;;;;;5024556;28;20052;-90
2021/11/11 13:07:31;;;;;;;3.78;1.85;;;15.20;99.90;;;;;;5029315;28;20051;-88
2021/11/11 13:10:15;;;;;;;3.22;1.58;;;15.30;99.90;;;;;;4998185;28;20053;-90
2021/11/11 13:13:08;;;;;;;4.82;1.73;;;15.30;99.90;;;;;;5043367;28;20047;-86
2021/11/11 13:15:41;;;;;;;2.25;1.27;;;15.30;99.90;;;;;;5027132;28;20048;-84
2021/11/11 13:18:09;;;;;;;4.45;1.52;;;15.40;99.90;;;;;;5026499;28;20044;-90
2021/11/11 13:20:47;;;;;;;2.25;1.55;;;15.40;99.90;;;;;;5027475;28;20785;-88
2021/11/11 13:23:29;;;;;;;7.20;1.95;;;15.40;99.90;;;;;;5040765;28;20538;-86
2021/11/11 13:26:33;;;;;;;5.65;1.45;;;15.40;99.90;;;;;;5027064;28;20052;-86
2021/11/11 14:04:04;;;;;;;5.32;1.88;;;14.80;99.90;;;;;;5040377;28;20136;-88
2021/11/11 15:18:02;;;;;;;9.00;3.03;;;14.60;99.90;;;;;;5037362;28;20492;-85
2021/11/11 15:20:55;;;;;;;5.07;2.55;;;14.60;99.90;;;;;;5035620;28;20775;-86
2021/11/11 16:27:19;;;;;;;7.70;3.38;;;13.90;99.90;;;;;;5068074;28;20316;-86
2021/11/11 16:30:08;;;;;;;8.90;3.45;;;13.80;99.90;;;;;;5007289;28;20064;-87
2021/11/11 16:32:36;;;;;;;7.57;3.20;;;13.70;99.90;;;;;;5041508;28;20049;-86
2021/11/11 16:35:07;;;;;;;7.47;3.47;;;13.70;99.90;;;;;;5047100;28;20037;-87
2021/11/11 16:37:37;;;;;;;14.52;5.35;;;13.60;99.90;;;;;;5043347;28;20052;-87
2021/11/11 16:40:38;;;;;;;11.55;4.32;;;13.60;99.90;;;;;;5048210;28;20040;-88
2021/11/11 16:43:11;;;;;;;9.77;3.47;;;13.60;99.90;;;;;;5028342;28;20186;-87
2021/11/11 16:45:39;;;;;;;8.23;3.33;;;13.60;99.90;;;;;;5028288;28;20057;-87
2021/11/11 16:48:07;;;;;;;7.38;2.72;;;13.50;99.90;;;;;;5019667;28;20642;-87
2021/11/11 16:50:38;;;;;;;7.72;3.38;;;13.50;99.90;;;;;;5027249;28;20527;-88
2021/11/11 16:53:11;;;;;;;6.20;3.05;;;13.40;99.90;;;;;;5034993;28;20041;-87
2021/11/11 16:55:39;;;;;;;8.75;3.28;;;12.30;99.90;;;;;;5014574;28;20041;-88
2021/11/11 16:58:10;;;;;;;8.27;3.10;;;13.40;99.90;;;;;;5019368;28;20057;-88
2021/11/11 17:00:39;;;;;;;12.35;2.75;;;13.40;99.90;;;;;;5007065;28;20337;-88
2021/11/11 17:03:07;;;;;;;8.23;3.13;;;13.40;99.90;;;;;;4667826;28;9999815;-86
2021/11/11 17:05:36;;;;;;;8.02;3.25;;;13.10;99.90;;;;;;5044369;28;20324;-88
2021/11/11 17:08:06;;;;;;;10.13;4.85;;;13.40;99.90;;;;;;5019955;28;20049;-87
2021/11/11 17:10:36;;;;;;;13.30;4.43;;;13.40;99.90;;;;;;5050381;28;20055;-86
2021/11/11 17:13:06;;;;;;;18.63;5.30;;;13.40;99.90;;;;;;5036351;28;20045;-86
2021/11/11 17:15:38;;;;;;;14.95;4.93;;;13.50;99.90;;;;;;5028835;28;20052;-87
2021/11/11 17:18:10;;;;;;;9.27;4.25;;;13.40;99.90;;;;;;5005066;28;20487;-87
2021/11/11 17:20:48;;;;;;;16.42;4.85;;;13.70;99.90;;;;;;5024757;28;20828;-87
2021/11/11 17:23:18;;;;;;;6.63;2.97;;;13.40;99.90;;;;;;5013164;28;20048;-88
2021/11/11 17:26:17;;;;;;;10.95;3.92;;;13.40;99.90;;;;;;5020566;28;20053;-87
2021/11/11 17:28:47;;;;;;;8.77;3.50;;;13.40;99.90;;;;;;5024226;28;20052;-88
2021/11/11 17:31:15;;;;;;;9.60;3.47;;;13.40;99.90;;;;;;5030309;28;20048;-87
2021/11/11 17:33:43;;;;;;;9.35;3.40;;;13.40;99.90;;;;;;5026788;28;20040;-89
2021/11/11 17:36:14;;;;;;;14.23;3.67;;;13.40;99.90;;;;;;5023901;28;20041;-86
2021/11/11 17:38:46;;;;;;;6.72;2.88;;;13.40;99.90;;;;;;5027969;28;20044;-88
2021/11/11 17:41:14;;;;;;;6.78;3.20;;;13.40;99.90;;;;;;5044129;28;20039;-87
2021/11/11 17:43:48;;;;;;;14.95;4.03;;;13.40;99.90;;;;;;5052629;28;20048;-88
2021/11/11 17:48:55;;;;;;;5.90;3.67;;;13.30;99.90;;;;;;5039901;28;20928;-87
2021/11/11 17:51:38;;;;;;;9.68;4.07;;;13.30;99.90;;;;;;5041695;28;20052;-86
2021/11/11 17:54:15;;;;;;;5.60;2.95;;;13.30;99.90;;;;;;4995365;28;20057;-89
2021/11/11 17:56:50;;;;;;;9.60;4.15;;;13.30;99.90;;;;;;5055830;28;20045;-87
2021/11/11 17:59:19;;;;;;;8.15;3.78;;;13.30;99.90;;;;;;5014339;28;20044;-88
2021/11/11 18:01:48;;;;;;;7.93;4.07;;;13.30;99.90;;;;;;5042239;28;20063;-87
2021/11/11 18:04:16;;;;;;;6.82;4.00;;;13.20;99.90;;;;;;5035763;28;20048;-87
2021/11/11 18:06:52;;;;;;;12.20;4.60;;;13.30;99.90;;;;;;5044440;28;20048;-88
2021/11/11 18:09:28;;;;;;;13.27;6.00;;;13.00;99.90;;;;;;5026172;28;20060;-87
2021/11/11 18:12:03;;;;;;;9.30;3.80;;;12.90;99.90;;;;;;5041881;28;20052;-87
2021/11/11 18:14:32;;;;;;;10.40;3.40;;;12.80;99.90;;;;;;5064784;28;20044;-88
2021/11/11 18:17:01;;;;;;;15.25;4.32;;;12.60;99.90;;;;;;5043904;28;20476;-88
2021/11/11 18:19:30;;;;;;;8.95;3.42;;;12.50;99.90;;;;;;5062275;28;20047;-86
2021/11/11 18:21:58;;;;;;;17.15;4.15;;;12.50;99.90;;;;;;5020768;28;20057;-86
2021/11/11 18:24:26;;;;;;;8.15;4.07;;;12.30;99.90;;;;;;5021001;28;20040;-88
2021/11/11 18:26:54;;;;;;;12.02;3.88;;;12.20;99.90;;;;;;5025246;28;20048;-87
2021/11/11 18:29:31;;;;;;;11.23;3.70;;;12.20;99.90;;;;;;5038117;28;20044;-86
2021/11/11 18:32:08;;;;;;;11.13;4.70;;;12.10;99.90;;;;;;5038122;28;20059;-89
2021/11/11 18:34:42;;;;;;;21.70;5.22;;;12.00;99.90;;;;;;5043489;28;20045;-89
2021/11/11 18:37:23;;;;;;;8.95;4.20;;;11.90;99.90;;;;;;5057776;28;20044;-87
2021/11/11 18:39:54;;;;;;;16.13;6.13;;;11.80;99.90;;;;;;5016328;28;20648;-87
2021/11/11 18:42:27;;;;;;;16.90;7.43;;;11.70;99.90;;;;;;5043501;28;20045;-89
2021/11/11 18:44:57;;;;;;;14.77;6.55;;;11.70;99.90;;;;;;5011774;28;20044;-89
2021/11/11 18:47:28;;;;;;;12.27;6.27;;;11.60;99.90;;;;;;5053333;28;20048;-87
2021/11/11 18:49:59;;;;;;;;;;;11.60;99.90;;;;;;5054126;28;20300;-87
2021/11/11 18:52:41;;;;;;;15.32;5.72;;;12.60;99.90;;;;;;5038447;28;19928;-86
2021/11/11 18:55:09;;;;;;;22.80;6.70;;;11.50;99.90;;;;;;5022054;28;20068;-88
2021/11/11 18:57:37;;;;;;;15.98;6.40;;;11.50;99.90;;;;;;5031931;28;20060;-86
2021/11/11 19:00:08;;;;;;;16.23;7.20;;;11.40;99.90;;;;;;5027504;28;20060;-86
2021/11/11 19:02:37;;;;;;;12.60;6.00;;;11.40;99.90;;;;;;5059254;28;20038;-86
2021/11/11 19:05:13;;;;;;;15.90;6.60;;;11.30;99.90;;;;;;4680729;28;10000162;-90
2021/11/11 19:07:50;;;;;;;12.07;5.90;;;11.30;99.90;;;;;;5014127;28;20057;-84
2021/11/11 19:10:22;;;;;;;9.88;4.88;;;11.20;99.90;;;;;;5057810;28;20053;-86
2021/11/11 19:12:56;;;;;;;14.07;6.25;;;11.20;99.90;;;;;;5026072;28;20061;-88
2021/11/11 19:15:25;;;;;;;16.45;7.10;;;11.20;99.90;;;;;;5030134;28;20061;-89
2021/11/11 19:17:56;;;;;;;15.32;6.50;;;11.10;99.90;;;;;;5021231;28;20047;-87
2021/11/11 19:20:25;;;;;;;;;;;11.20;99.90;;;;;;5036676;28;20052;-87
2021/11/11 19:22:54;;;;;;;14.05;5.68;;;11.10;99.90;;;;;;5020970;28;19931;-85
2021/11/11 19:25:23;;;;;;;25.33;6.65;;;11.10;99.90;;;;;;5018490;28;20057;-87
2021/11/11 19:27:52;;;;;;;16.58;6.00;;;11.10;99.90;;;;;;5023050;28;20059;-85
2021/11/11 19:30:22;;;;;;;19.42;6.43;;;11.10;99.90;;;;;;5058593;28;20036;-86
2021/11/11 19:32:54;;;;;;;12.23;6.38;;;11.10;99.90;;;;;;5016052;28;20057;-86
2021/11/11 19:35:27;;;;;;;17.35;6.90;;;11.10;99.90;;;;;;5039041;28;20056;-87
2021/11/11 19:38:02;;;;;;;16.65;6.38;;;11.10;99.90;;;;;;5022895;28;20539;-87
2021/11/11 19:51:12;;;;;;;11.20;5.05;;;11.30;99.90;;;;;;5040634;28;20052;-86
2021/11/11 20:07:18;;;;;;;17.75;6.72;;;11.60;99.90;;;;;;5043166;28;20048;-85
2021/11/11 20:41:21;;;;;;;27.65;7.22;;;11.50;99.90;;;;;;5041507;28;20132;-86
2021/11/11 20:43:58;;;;;;;11.65;6.88;;;11.50;99.90;;;;;;5048525;28;20443;-87
2021/11/11 20:56:16;;;;;;;16.00;7.65;;;11.10;99.90;;;;;;4966242;28;20062;-86